createdAt,value
2023-03-13T00:01:17.608Z,4.39
2023-03-13T00:03:44.729Z,4.42
2023-03-13T00:06:11.320Z,4.44
2023-03-13T00:08:38.542Z,4.45
2023-03-13T00:11:07.297Z,4.50
2023-03-13T00:13:34.144Z,4.51
2023-03-13T00:16:06.226Z,4.52
2023-03-13T00:18:32.660Z,4.52
2023-03-13T00:21:04.723Z,4.52
2023-03-13T00:23:31.156Z,4.52
2023-03-13T00:25:59.725Z,4.51
2023-03-13T00:28:31.909Z,4.52
2023-03-13T00:31:16.039Z,4.51
2023-03-13T00:33:44.936Z,4.51
2023-03-13T00:36:15.047Z,4.53
2023-03-13T00:38:42.273Z,4.49
2023-03-13T00:41:11.349Z,4.43
2023-03-13T00:43:38.779Z,4.32
2023-03-13T00:46:05.485Z,4.28
2023-03-13T00:48:32.440Z,4.32
2023-03-13T00:50:59.487Z,4.30
2023-03-13T00:53:26.294Z,4.27
2023-03-13T00:56:02.804Z,4.27
2023-03-13T00:58:31.961Z,4.24
2023-03-13T01:01:08.716Z,4.28
2023-03-13T01:03:36.433Z,4.25
2023-03-13T01:06:06.166Z,4.27
2023-03-13T01:08:32.780Z,4.27
2023-03-13T01:11:06.064Z,4.30
2023-03-13T01:13:33.304Z,4.32
2023-03-13T01:16:08.076Z,4.34
2023-03-13T01:18:36.419Z,4.37
2023-03-13T01:21:03.946Z,4.37
2023-03-13T01:23:30.766Z,4.38
2023-03-13T01:25:57.912Z,4.37
2023-03-13T01:28:26.472Z,4.38
2023-03-13T01:30:53.703Z,4.39
2023-03-13T01:33:20.135Z,4.36
2023-03-13T01:35:46.650Z,4.39
2023-03-13T01:38:13.139Z,4.37
2023-03-13T01:40:47.689Z,4.39
2023-03-13T01:43:27.336Z,4.40
2023-03-13T01:45:54.213Z,4.40
2023-03-13T01:48:25.141Z,4.43
2023-03-13T01:50:53.667Z,4.44
2023-03-13T01:53:20.337Z,4.46
2023-03-13T01:55:47.378Z,4.45
2023-03-13T01:58:13.900Z,4.44
2023-03-13T02:00:43.848Z,4.48
2023-03-13T02:03:17.662Z,4.44
2023-03-13T02:05:47.678Z,4.45
2023-03-13T02:08:22.958Z,4.45
2023-03-13T02:11:26.371Z,4.47
2023-03-13T02:13:53.910Z,4.45
2023-03-13T02:16:23.793Z,4.47
2023-03-13T02:18:50.540Z,4.47
2023-03-13T02:21:35.925Z,4.50
2023-03-13T02:24:13.044Z,4.53
2023-03-13T02:26:39.488Z,4.54
2023-03-13T02:29:06.041Z,4.57
2023-03-13T02:31:33.566Z,4.56
2023-03-13T02:34:01.690Z,4.57
2023-03-13T02:36:29.953Z,4.62
2023-03-13T02:39:00.871Z,4.61
2023-03-13T02:41:29.200Z,4.64
2023-03-13T02:43:55.668Z,4.66
2023-03-13T02:46:22.414Z,4.70
2023-03-13T02:48:56.174Z,4.76
2023-03-13T02:51:28.833Z,4.77
2023-03-13T02:54:00.752Z,4.80
2023-03-13T02:56:30.295Z,4.78
2023-03-13T02:58:56.927Z,4.78
2023-03-13T03:01:23.245Z,4.83
2023-03-13T03:03:49.754Z,4.87
2023-03-13T03:06:16.477Z,4.92
2023-03-13T03:08:43.881Z,4.90
2023-03-13T03:11:12.766Z,4.86
2023-03-13T03:13:39.469Z,4.85
2023-03-13T03:16:10.965Z,4.86
2023-03-13T03:18:38.639Z,4.86
2023-03-13T03:21:05.479Z,4.95
2023-03-13T03:23:36.414Z,4.99
2023-03-13T03:26:03.599Z,4.99
2023-03-13T03:28:30.171Z,4.98
2023-03-13T03:30:56.770Z,5.03
2023-03-13T03:33:24.124Z,5.15
2023-03-13T03:35:50.872Z,5.10
2023-03-13T03:38:17.335Z,5.14
2023-03-13T03:40:49.853Z,5.13
2023-03-13T03:43:16.236Z,5.10
2023-03-13T03:45:42.655Z,5.10
2023-03-13T03:48:09.196Z,5.04
2023-03-13T03:50:35.682Z,5.01
2023-03-13T03:53:02.114Z,5.03
2023-03-13T03:55:28.789Z,5.03
2023-03-13T03:57:55.140Z,5.03
2023-03-13T04:00:21.906Z,5.02
2023-03-13T04:02:48.260Z,5.01
2023-03-13T04:05:14.920Z,5.01
2023-03-13T04:07:41.409Z,5.00
2023-03-13T04:10:08.900Z,5.03
2023-03-13T04:12:35.254Z,5.08
2023-03-13T04:15:01.702Z,5.04
2023-03-13T04:17:28.082Z,5.04
2023-03-13T04:19:54.556Z,5.04
2023-03-13T04:22:20.912Z,5.08
2023-03-13T04:24:47.402Z,5.12
2023-03-13T04:27:13.886Z,5.08
2023-03-13T04:29:40.289Z,5.05
2023-03-13T04:32:07.443Z,5.09
2023-03-13T04:34:35.159Z,5.10
2023-03-13T04:37:02.110Z,5.14
2023-03-13T04:39:28.884Z,5.19
2023-03-13T04:41:56.055Z,5.22
2023-03-13T04:44:23.145Z,5.27
2023-03-13T04:46:49.746Z,5.31
2023-03-13T04:49:16.637Z,5.34
2023-03-13T04:51:44.577Z,5.39
2023-03-13T04:54:11.483Z,5.41
2023-03-13T04:56:43.732Z,5.45
2023-03-13T04:59:14.068Z,5.49
2023-03-13T05:01:41.635Z,5.52
2023-03-13T05:04:08.263Z,5.60
2023-03-13T05:06:36.175Z,5.57
2023-03-13T05:09:03.501Z,5.58
2023-03-13T05:11:30.513Z,5.63
2023-03-13T05:13:58.019Z,5.65
2023-03-13T05:16:24.877Z,5.72
2023-03-13T05:18:51.263Z,5.83
2023-03-13T05:21:17.750Z,6.04
2023-03-13T05:23:44.756Z,6.07
2023-03-13T05:26:11.483Z,6.13
2023-03-13T05:28:37.794Z,6.18
2023-03-13T05:31:04.657Z,6.19
2023-03-13T05:33:32.151Z,6.23
2023-03-13T05:35:58.552Z,6.19
2023-03-13T05:38:25.446Z,6.13
2023-03-13T05:40:51.764Z,6.18
2023-03-13T05:43:20.417Z,6.15
2023-03-13T05:45:46.972Z,6.10
2023-03-13T05:48:14.566Z,6.11
2023-03-13T05:50:40.978Z,6.13
2023-03-13T05:53:11.036Z,6.16
2023-03-13T05:55:37.410Z,6.19
2023-03-13T05:58:06.055Z,6.20
2023-03-13T06:00:32.583Z,6.17
2023-03-13T06:02:58.937Z,6.16
2023-03-13T06:05:25.566Z,6.20
2023-03-13T06:07:53.060Z,6.20
2023-03-13T06:10:19.854Z,6.31
2023-03-13T06:12:53.053Z,6.32
2023-03-13T06:15:19.383Z,6.33
2023-03-13T06:17:45.711Z,6.41
2023-03-13T06:20:12.708Z,6.57
2023-03-13T06:22:39.059Z,6.64
2023-03-13T06:25:06.005Z,6.70
2023-03-13T06:27:32.498Z,6.84
2023-03-13T06:29:58.954Z,6.99
2023-03-13T06:32:25.675Z,7.11
2023-03-13T06:34:52.206Z,7.25
2023-03-13T06:37:18.885Z,7.40
2023-03-13T06:39:45.673Z,7.51
2023-03-13T06:42:12.010Z,7.60
2023-03-13T06:44:38.721Z,7.59
2023-03-13T06:47:05.386Z,7.71
2023-03-13T06:49:32.062Z,7.75
2023-03-13T06:52:01.254Z,7.98
2023-03-13T06:54:28.007Z,7.92
2023-03-13T06:56:54.898Z,7.99
2023-03-13T06:59:21.418Z,8.27
2023-03-13T07:01:48.080Z,8.41
2023-03-13T07:04:14.894Z,8.68
2023-03-13T07:06:41.401Z,8.93
2023-03-13T07:09:07.935Z,8.86
2023-03-13T07:11:34.644Z,8.95
2023-03-13T07:14:15.243Z,9.10
2023-03-13T07:16:44.221Z,9.33
2023-03-13T07:19:10.718Z,9.50
2023-03-13T07:21:37.256Z,9.70
2023-03-13T07:24:04.016Z,9.76
2023-03-13T07:26:30.451Z,9.81
2023-03-13T07:28:57.166Z,9.91
2023-03-13T07:31:23.759Z,9.92
2023-03-13T07:33:50.624Z,10.11
2023-03-13T07:36:17.057Z,10.14
2023-03-13T07:38:43.502Z,10.08
2023-03-13T07:41:12.284Z,10.37
2023-03-13T07:43:38.957Z,10.34
2023-03-13T07:46:07.186Z,10.36
2023-03-13T07:48:38.505Z,10.41
2023-03-13T07:51:07.912Z,10.48
2023-03-13T07:53:35.204Z,10.54
2023-03-13T07:56:06.834Z,10.52
2023-03-13T07:58:36.093Z,10.57
2023-03-13T08:01:10.031Z,10.60
2023-03-13T08:03:37.196Z,10.73
2023-03-13T08:06:06.895Z,10.77
2023-03-13T08:08:33.782Z,10.80
2023-03-13T08:11:02.359Z,10.84
2023-03-13T08:13:31.628Z,10.99
2023-03-13T08:16:08.147Z,11.06
2023-03-13T08:18:38.980Z,11.10
2023-03-13T08:21:06.803Z,11.19
2023-03-13T08:23:34.029Z,11.41
2023-03-13T08:26:19.769Z,11.65
2023-03-13T08:28:49.136Z,11.85
2023-03-13T08:31:23.045Z,11.99
2023-03-13T08:33:50.703Z,12.13
2023-03-13T08:36:24.949Z,12.23
2023-03-13T08:38:53.042Z,12.58
2023-03-13T08:41:28.129Z,12.89
2023-03-13T08:43:56.313Z,13.13
2023-03-13T08:46:23.830Z,13.23
2023-03-13T08:48:54.832Z,13.35
2023-03-13T08:51:24.174Z,13.43
2023-03-13T08:53:52.508Z,13.42
2023-03-13T08:56:22.186Z,13.38
2023-03-13T08:58:55.860Z,13.47
2023-03-13T09:01:26.902Z,13.49
2023-03-13T09:03:55.125Z,13.36
2023-03-13T09:06:22.028Z,13.44
2023-03-13T09:08:48.834Z,13.43
2023-03-13T09:11:22.108Z,13.55
2023-03-13T09:13:50.822Z,13.51
2023-03-13T09:16:26.641Z,13.52
2023-03-13T09:18:53.885Z,13.64
2023-03-13T09:21:22.749Z,13.64
2023-03-13T09:23:49.694Z,13.54
2023-03-13T09:26:20.999Z,13.64
2023-03-13T09:28:49.609Z,13.70
2023-03-13T09:31:42.457Z,13.86
2023-03-13T09:34:11.657Z,13.81
2023-03-13T09:36:38.493Z,13.93
2023-03-13T09:39:08.646Z,14.02
2023-03-13T09:41:40.347Z,14.02
2023-03-13T09:44:43.228Z,14.21
2023-03-13T09:47:24.252Z,14.23
2023-03-13T09:50:01.800Z,14.22
2023-03-13T09:52:40.364Z,14.25
2023-03-13T09:55:21.626Z,14.40
2023-03-13T10:00:59.928Z,14.40
2023-03-13T10:03:39.560Z,14.43
2023-03-13T10:06:18.176Z,14.78
2023-03-13T10:08:44.638Z,14.99
2023-03-13T10:11:25.967Z,14.71
2023-03-13T10:14:11.183Z,14.88
2023-03-13T10:17:24.151Z,15.05
2023-03-13T10:19:58.048Z,15.31
2023-03-13T10:22:31.391Z,16.34
2023-03-13T10:25:03.340Z,16.59
2023-03-13T10:27:29.714Z,16.71
2023-03-13T10:29:56.085Z,17.22
2023-03-13T10:32:22.552Z,17.00
2023-03-13T10:34:59.927Z,17.36
2023-03-13T10:37:44.084Z,17.41
2023-03-13T10:40:25.883Z,17.40
2023-03-13T10:42:59.908Z,17.66
2023-03-13T10:45:38.380Z,17.95
2023-03-13T10:48:18.522Z,17.76
2023-03-13T10:50:47.958Z,17.58
2023-03-13T10:53:29.646Z,17.69
2023-03-13T10:56:16.648Z,18.13
2023-03-13T10:58:52.378Z,17.79
2023-03-13T11:01:24.180Z,17.67
2023-03-13T11:03:53.909Z,18.04
2023-03-13T11:06:34.687Z,17.85
2023-03-13T11:09:14.910Z,17.77
2023-03-13T11:11:56.123Z,17.47
2023-03-13T11:14:25.357Z,17.53
2023-03-13T11:17:14.997Z,17.39
2023-03-13T11:20:12.251Z,17.40
2023-03-13T11:22:55.939Z,17.55
2023-03-13T11:25:28.373Z,17.94
2023-03-13T11:28:34.269Z,17.91
2023-03-13T11:31:07.804Z,18.02
2023-03-13T11:34:02.641Z,17.65
2023-03-13T11:36:36.470Z,17.83
2023-03-13T11:39:12.750Z,18.20
2023-03-13T11:42:01.246Z,18.21
2023-03-13T11:44:59.334Z,18.12
2023-03-13T11:47:46.279Z,18.12
2023-03-13T11:50:21.906Z,17.89
2023-03-13T11:53:08.494Z,17.97
2023-03-13T11:56:13.108Z,17.90
2023-03-13T11:59:02.653Z,18.21
2023-03-13T12:01:36.437Z,18.76
2023-03-13T12:04:13.059Z,18.79
2023-03-13T12:06:51.029Z,18.85
2023-03-13T12:10:05.646Z,19.03
2023-03-13T12:13:00.135Z,19.20
2023-03-13T12:15:39.081Z,19.66
2023-03-13T12:18:23.410Z,19.72
2023-03-13T12:20:58.400Z,19.63
2023-03-13T12:23:44.022Z,19.54
2023-03-13T12:26:21.134Z,19.29
2023-03-13T12:28:56.678Z,18.85
2023-03-13T12:31:41.066Z,18.79
2023-03-13T12:34:13.487Z,19.36
2023-03-13T12:37:03.882Z,19.81
2023-03-13T12:39:39.410Z,20.02
2023-03-13T12:42:36.157Z,20.50
2023-03-13T12:45:03.137Z,20.44
2023-03-13T12:47:36.070Z,19.86
2023-03-13T12:50:27.417Z,19.45
2023-03-13T12:53:36.934Z,19.67
2023-03-13T12:56:18.935Z,19.72
2023-03-13T12:59:04.458Z,19.42
2023-03-13T13:01:35.055Z,20.01
2023-03-13T13:04:07.993Z,19.71
2023-03-13T13:07:01.649Z,19.43
2023-03-13T13:09:33.999Z,19.99
2023-03-13T13:12:16.117Z,20.22
2023-03-13T13:14:48.318Z,20.50
2023-03-13T13:17:25.564Z,20.71
2023-03-13T13:19:52.497Z,20.59
2023-03-13T13:22:35.436Z,20.82
2023-03-13T13:25:11.991Z,20.54
2023-03-13T13:27:38.618Z,20.27
2023-03-13T13:30:25.210Z,20.36
2023-03-13T13:32:57.467Z,20.25
2023-03-13T13:35:34.386Z,20.59
2023-03-13T13:38:19.556Z,20.15
2023-03-13T13:41:25.933Z,20.32
2023-03-13T13:44:22.465Z,20.22
2023-03-13T13:46:49.131Z,20.23
2023-03-13T13:49:24.867Z,20.43
2023-03-13T13:52:19.191Z,20.61
2023-03-13T13:54:56.674Z,20.70
2023-03-13T13:57:37.229Z,20.65
2023-03-13T14:00:25.236Z,20.84
2023-03-13T14:02:53.932Z,20.83
2023-03-13T14:05:30.493Z,20.99
2023-03-13T14:08:06.349Z,20.94
2023-03-13T14:10:42.389Z,20.69
2023-03-13T14:13:22.042Z,20.56
2023-03-13T14:15:50.603Z,20.71
2023-03-13T14:18:25.702Z,21.02
2023-03-13T14:20:55.645Z,20.99
2023-03-13T14:23:50.315Z,20.98
2023-03-13T14:26:25.916Z,20.63
2023-03-13T14:28:58.305Z,20.72
2023-03-13T14:31:51.370Z,20.64
2023-03-13T14:34:17.897Z,20.70
2023-03-13T14:36:57.120Z,20.84
2023-03-13T14:39:31.104Z,21.17
2023-03-13T14:42:04.219Z,21.46
2023-03-13T14:44:35.355Z,21.31
2023-03-13T14:47:08.280Z,21.21
2023-03-13T14:49:37.105Z,21.12
2023-03-13T14:52:20.722Z,21.08
2023-03-13T14:54:58.945Z,20.82
2023-03-13T14:57:27.722Z,20.78
2023-03-13T14:59:56.088Z,20.99
2023-03-13T15:02:30.781Z,21.04
2023-03-13T15:05:02.593Z,21.21
2023-03-13T15:07:42.738Z,20.93
2023-03-13T15:10:26.278Z,20.77
2023-03-13T15:12:52.885Z,20.52
2023-03-13T15:15:19.535Z,20.63
2023-03-13T15:17:46.081Z,20.74
2023-03-13T15:20:14.193Z,20.57
2023-03-13T15:22:44.923Z,20.81
2023-03-13T15:25:22.678Z,20.61
2023-03-13T15:27:50.330Z,20.39
2023-03-13T15:30:22.193Z,20.34
2023-03-13T15:32:52.409Z,20.34
2023-03-13T15:35:30.607Z,20.27
2023-03-13T15:37:59.117Z,20.24
2023-03-13T15:40:27.092Z,20.28
2023-03-13T15:42:54.824Z,20.28
2023-03-13T15:45:21.614Z,20.20
2023-03-13T15:47:48.395Z,20.02
2023-03-13T15:50:18.337Z,19.87
2023-03-13T15:52:44.998Z,19.69
2023-03-13T15:55:13.828Z,19.69
2023-03-13T15:57:46.389Z,19.66
2023-03-13T16:00:20.410Z,19.53
2023-03-13T16:02:47.224Z,19.40
2023-03-13T16:05:13.688Z,19.31
2023-03-13T16:07:40.185Z,19.19
2023-03-13T16:10:17.018Z,19.07
2023-03-13T16:12:43.901Z,18.97
2023-03-13T16:15:10.816Z,18.83
2023-03-13T16:17:37.267Z,18.81
2023-03-13T16:20:05.153Z,18.81
2023-03-13T16:22:31.543Z,18.77
2023-03-13T16:24:58.347Z,18.87
2023-03-13T16:27:24.936Z,18.91
2023-03-13T16:29:51.446Z,18.86
2023-03-13T16:32:17.823Z,18.76
2023-03-13T16:34:44.237Z,18.64
2023-03-13T16:37:16.065Z,18.42
2023-03-13T16:39:43.837Z,18.38
2023-03-13T16:42:10.504Z,18.22
2023-03-13T16:44:36.964Z,18.03
2023-03-13T16:47:15.469Z,17.95
2023-03-13T16:49:41.818Z,17.73
2023-03-13T16:52:14.180Z,17.66
2023-03-13T16:54:40.579Z,17.51
2023-03-13T16:57:12.770Z,17.35
2023-03-13T16:59:39.705Z,17.23
2023-03-13T17:02:14.342Z,17.12
2023-03-13T17:04:43.190Z,17.16
2023-03-13T17:07:18.711Z,16.98
2023-03-13T17:09:45.622Z,16.91
2023-03-13T17:12:12.007Z,16.74
2023-03-13T17:14:38.393Z,16.66
2023-03-13T17:17:04.822Z,16.51
2023-03-13T17:19:32.249Z,16.43
2023-03-13T17:21:58.758Z,16.32
2023-03-13T17:24:25.293Z,16.24
2023-03-13T17:26:51.875Z,16.10
2023-03-13T17:29:18.575Z,16.13
2023-03-13T17:31:45.045Z,16.10
2023-03-13T17:34:11.436Z,16.04
2023-03-13T17:36:37.901Z,16.00
2023-03-13T17:39:07.100Z,15.91
2023-03-13T17:41:35.157Z,15.82
2023-03-13T17:44:01.850Z,15.78
2023-03-13T17:46:39.178Z,15.78
2023-03-13T17:49:05.709Z,15.72
2023-03-13T17:51:33.752Z,15.65
2023-03-13T17:54:01.008Z,15.59
2023-03-13T17:56:41.028Z,15.50
2023-03-13T17:59:12.956Z,15.44
2023-03-13T18:01:40.021Z,15.42
2023-03-13T18:04:06.686Z,15.35
2023-03-13T18:06:39.879Z,15.35
2023-03-13T18:09:13.471Z,15.27
2023-03-13T18:11:39.938Z,15.21
2023-03-13T18:14:06.561Z,15.13
2023-03-13T18:16:38.320Z,15.09
2023-03-13T18:19:06.506Z,15.06
2023-03-13T18:21:33.508Z,15.02
2023-03-13T18:24:00.328Z,15.05
2023-03-13T18:26:33.255Z,15.04
2023-03-13T18:29:00.963Z,15.07
2023-03-13T18:31:32.952Z,15.12
2023-03-13T18:33:59.751Z,15.14
2023-03-13T18:36:27.376Z,15.10
2023-03-13T18:38:54.215Z,15.03
2023-03-13T18:41:20.655Z,15.07
2023-03-13T18:43:47.421Z,14.96
2023-03-13T18:46:23.022Z,15.07
2023-03-13T18:48:50.514Z,15.10
2023-03-13T18:51:19.871Z,15.05
2023-03-13T18:53:47.997Z,15.33
2023-03-13T18:56:20.643Z,15.57
2023-03-13T18:58:50.607Z,15.87
2023-03-13T19:01:25.038Z,14.68
2023-03-13T19:03:52.383Z,13.48
2023-03-13T19:06:25.392Z,12.25
2023-03-13T19:08:55.086Z,11.46
2023-03-13T19:11:25.787Z,10.95
2023-03-13T19:13:52.337Z,10.91
2023-03-13T19:16:31.880Z,10.78
2023-03-13T19:18:58.813Z,10.77
2023-03-13T19:21:28.068Z,10.82
2023-03-13T19:23:55.762Z,10.86
2023-03-13T19:26:35.271Z,10.74
2023-03-13T19:29:02.315Z,10.64
2023-03-13T19:31:28.826Z,10.62
2023-03-13T19:33:55.298Z,10.67
2023-03-13T19:36:24.250Z,10.63
2023-03-13T19:57:10.552Z,10.46
2023-03-13T19:59:37.264Z,10.45
2023-03-13T20:05:32.625Z,10.46
2023-03-13T20:08:01.724Z,10.48
2023-03-13T20:10:28.698Z,10.49
2023-03-13T20:12:55.449Z,10.45
2023-03-13T20:15:22.271Z,10.55
2023-03-13T20:17:50.470Z,10.60
2023-03-13T20:20:17.191Z,10.53
2023-03-13T20:22:43.556Z,10.54
2023-03-13T20:25:11.855Z,10.50
2023-03-13T20:27:38.219Z,10.46
2023-03-13T20:30:06.678Z,10.46
2023-03-13T20:32:33.286Z,10.55
2023-03-13T20:34:59.642Z,10.53
2023-03-13T20:37:26.188Z,10.49
2023-03-13T20:39:52.803Z,9.52
2023-03-13T20:42:20.357Z,9.61
2023-03-13T20:44:46.906Z,9.42
2023-03-13T20:47:14.359Z,9.33
2023-03-13T20:49:40.892Z,9.21
2023-03-13T20:52:07.545Z,9.14
2023-03-13T20:54:34.252Z,9.10
2023-03-13T20:57:00.602Z,9.06
2023-03-13T20:59:27.044Z,9.02
2023-03-13T21:01:53.493Z,8.96
2023-03-13T21:04:19.955Z,8.95
2023-03-13T21:06:48.094Z,8.89
2023-03-13T21:09:14.415Z,8.89
2023-03-13T21:11:41.085Z,8.85
2023-03-13T21:14:07.527Z,8.86
2023-03-13T21:16:34.222Z,8.86
2023-03-13T21:19:00.755Z,8.86
2023-03-13T21:21:27.701Z,8.91
2023-03-13T21:23:54.122Z,8.89
2023-03-13T21:26:20.806Z,8.78
2023-03-13T21:28:48.588Z,8.77
2023-03-13T21:31:17.375Z,8.70
2023-03-13T21:33:45.232Z,8.66
2023-03-13T21:36:13.655Z,8.66
2023-03-13T21:38:41.933Z,8.64
2023-03-13T21:41:14.214Z,8.62
2023-03-13T21:43:42.791Z,8.61
2023-03-13T21:46:14.868Z,8.66
2023-03-13T21:48:43.409Z,8.71
2023-03-13T21:51:13.441Z,8.67
2023-03-13T21:53:39.901Z,8.64
2023-03-13T21:56:07.521Z,8.70
2023-03-13T21:58:34.642Z,8.61
2023-03-13T22:01:01.356Z,8.54
2023-03-13T22:03:27.814Z,8.46
2023-03-13T22:05:54.307Z,8.45
2023-03-13T22:08:21.048Z,8.43
2023-03-13T22:10:52.930Z,8.50
2023-03-13T22:13:19.311Z,8.44
2023-03-13T22:15:46.994Z,8.46
2023-03-13T22:18:20.637Z,8.36
2023-03-13T22:20:46.972Z,8.27
2023-03-13T22:23:17.359Z,8.24
2023-03-13T22:25:44.420Z,8.21
2023-03-13T22:28:11.819Z,8.23
2023-03-13T22:30:39.438Z,8.28
2023-03-13T22:33:07.488Z,8.24
2023-03-13T22:35:35.303Z,8.22
2023-03-13T22:38:03.798Z,8.31
2023-03-13T22:40:30.150Z,8.37
2023-03-13T22:42:57.526Z,8.39
2023-03-13T22:45:25.071Z,8.44
2023-03-13T22:47:52.339Z,8.42
2023-03-13T22:50:19.380Z,8.40
2023-03-13T22:52:45.826Z,8.30
2023-03-13T22:55:12.681Z,8.27
2023-03-13T22:57:40.801Z,8.24
2023-03-13T23:00:07.942Z,8.27
2023-03-13T23:02:35.515Z,8.32
2023-03-13T23:05:03.774Z,8.23
2023-03-13T23:07:30.369Z,8.30
2023-03-13T23:09:58.193Z,8.38
2023-03-13T23:12:25.832Z,8.38
2023-03-13T23:14:53.082Z,8.37
2023-03-13T23:17:19.861Z,8.37
2023-03-13T23:19:48.848Z,8.35
2023-03-13T23:22:15.339Z,8.33
2023-03-13T23:24:41.701Z,8.41
2023-03-13T23:27:08.492Z,8.44
2023-03-13T23:29:38.135Z,8.45
2023-03-13T23:32:05.072Z,8.42
2023-03-13T23:34:31.860Z,8.38
2023-03-13T23:36:59.486Z,8.29
2023-03-13T23:39:26.220Z,8.28
2023-03-13T23:41:53.734Z,8.23
2023-03-13T23:44:20.306Z,8.20
2023-03-13T23:46:47.563Z,8.38
2023-03-13T23:49:17.959Z,8.29
2023-03-13T23:51:45.943Z,8.32
2023-03-13T23:54:12.328Z,8.29
2023-03-13T23:56:39.845Z,8.23
2023-03-13T23:59:06.434Z,8.33
